Terminal Aerodrome Forecast
Issued by NWS

Home | Current Version | Previous Version | Text Only | Print | Product List | Glossary On
Versions: 1 2 3 4 5 6 7 8 9 10 11 12 13
000
FTUS42 KILM 010500
TAFCRE
TAF
KCRE 010538Z 0106/0206 VRB02KT P6SM BKN120
     FM011400 17009KT P6SM SCT040 BKN200
     FM012200 19011KT P6SM BKN030=

USA.gov is the U.S. government's official web portal to all federal, state and local government web resources and services.